sensor_id;sensor_type;location;lat;lon;timestamp;P1;durP1;ratioP1;P2;durP2;ratioP2
55270;SDS011;41132;47.162;9.470;2023-02-13T00:02:13;9.65;;;4.95;;
55270;SDS011;41132;47.162;9.470;2023-02-13T00:04:39;7.97;;;4.75;;
55270;SDS011;41132;47.162;9.470;2023-02-13T00:07:06;7.75;;;4.60;;
55270;SDS011;41132;47.162;9.470;2023-02-13T00:09:33;10.82;;;5.03;;
55270;SDS011;41132;47.162;9.470;2023-02-13T00:11:58;9.30;;;5.28;;
55270;SDS011;41132;47.162;9.470;2023-02-13T00:14:23;9.68;;;5.68;;
55270;SDS011;41132;47.162;9.470;2023-02-13T00:16:49;10.00;;;5.07;;
55270;SDS011;41132;47.162;9.470;2023-02-13T00:19:14;9.48;;;5.70;;
55270;SDS011;41132;47.162;9.470;2023-02-13T00:21:40;10.10;;;5.20;;
55270;SDS011;41132;47.162;9.470;2023-02-13T00:24:06;7.70;;;4.57;;
55270;SDS011;41132;47.162;9.470;2023-02-13T00:26:31;9.05;;;5.00;;
55270;SDS011;41132;47.162;9.470;2023-02-13T00:28:56;9.15;;;4.68;;
55270;SDS011;41132;47.162;9.470;2023-02-13T00:31:22;7.55;;;4.47;;
55270;SDS011;41132;47.162;9.470;2023-02-13T00:33:47;9.00;;;4.30;;
55270;SDS011;41132;47.162;9.470;2023-02-13T00:36:14;6.40;;;3.78;;
55270;SDS011;41132;47.162;9.470;2023-02-13T00:38:42;8.73;;;3.83;;
55270;SDS011;41132;47.162;9.470;2023-02-13T00:41:08;8.93;;;4.55;;
55270;SDS011;41132;47.162;9.470;2023-02-13T00:43:34;7.60;;;3.72;;
55270;SDS011;41132;47.162;9.470;2023-02-13T00:46:00;7.38;;;4.18;;
55270;SDS011;41132;47.162;9.470;2023-02-13T00:48:26;7.07;;;4.07;;
55270;SDS011;41132;47.162;9.470;2023-02-13T00:50:53;8.90;;;4.70;;
55270;SDS011;41132;47.162;9.470;2023-02-13T00:53:19;8.15;;;4.45;;
55270;SDS011;41132;47.162;9.470;2023-02-13T00:55:46;10.30;;;4.45;;
55270;SDS011;41132;47.162;9.470;2023-02-13T00:58:12;9.52;;;4.13;;
55270;SDS011;41132;47.162;9.470;2023-02-13T01:00:38;7.50;;;4.00;;
55270;SDS011;41132;47.162;9.470;2023-02-13T01:03:04;8.52;;;4.68;;
55270;SDS011;41132;47.162;9.470;2023-02-13T01:05:29;9.02;;;4.45;;
55270;SDS011;41132;47.162;9.470;2023-02-13T01:07:55;10.13;;;5.00;;
55270;SDS011;41132;47.162;9.470;2023-02-13T01:10:20;8.63;;;4.57;;
55270;SDS011;41132;47.162;9.470;2023-02-13T01:12:46;8.02;;;4.78;;
55270;SDS011;41132;47.162;9.470;2023-02-13T01:15:11;8.80;;;5.03;;
55270;SDS011;41132;47.162;9.470;2023-02-13T01:17:37;10.77;;;5.25;;
55270;SDS011;41132;47.162;9.470;2023-02-13T01:20:05;9.05;;;5.00;;
55270;SDS011;41132;47.162;9.470;2023-02-13T01:22:32;8.30;;;4.35;;
55270;SDS011;41132;47.162;9.470;2023-02-13T01:24:58;8.40;;;4.38;;
55270;SDS011;41132;47.162;9.470;2023-02-13T01:27:23;8.23;;;4.75;;
55270;SDS011;41132;47.162;9.470;2023-02-13T01:29:49;8.90;;;5.20;;
55270;SDS011;41132;47.162;9.470;2023-02-13T01:32:14;9.90;;;4.90;;
55270;SDS011;41132;47.162;9.470;2023-02-13T01:34:39;7.80;;;5.00;;
55270;SDS011;41132;47.162;9.470;2023-02-13T01:37:05;8.85;;;5.10;;
55270;SDS011;41132;47.162;9.470;2023-02-13T01:39:30;8.35;;;5.13;;
55270;SDS011;41132;47.162;9.470;2023-02-13T01:41:56;8.23;;;4.93;;
55270;SDS011;41132;47.162;9.470;2023-02-13T01:49:54;10.68;;;4.95;;
55270;SDS011;41132;47.162;9.470;2023-02-13T01:52:26;8.10;;;4.57;;
55270;SDS011;41132;47.162;9.470;2023-02-13T01:54:52;9.77;;;4.80;;
55270;SDS011;41132;47.162;9.470;2023-02-13T01:57:19;8.48;;;5.07;;
55270;SDS011;41132;47.162;9.470;2023-02-13T01:59:48;9.02;;;5.10;;
55270;SDS011;41132;47.162;9.470;2023-02-13T02:02:15;10.60;;;5.25;;
55270;SDS011;41132;47.162;9.470;2023-02-13T02:04:42;9.02;;;4.47;;
55270;SDS011;41132;47.162;9.470;2023-02-13T02:07:25;8.60;;;4.70;;
55270;SDS011;41132;47.162;9.470;2023-02-13T02:12:26;7.38;;;4.35;;
55270;SDS011;41132;47.162;9.470;2023-02-13T02:14:57;9.02;;;4.97;;
55270;SDS011;41132;47.162;9.470;2023-02-13T02:17:25;8.35;;;4.82;;
55270;SDS011;41132;47.162;9.470;2023-02-13T02:28:09;8.02;;;4.60;;
55270;SDS011;41132;47.162;9.470;2023-02-13T02:35:52;10.43;;;5.70;;
55270;SDS011;41132;47.162;9.470;2023-02-13T02:44:37;10.15;;;6.10;;
55270;SDS011;41132;47.162;9.470;2023-02-13T02:47:14;10.70;;;6.18;;
55270;SDS011;41132;47.162;9.470;2023-02-13T02:58:35;11.27;;;6.00;;
55270;SDS011;41132;47.162;9.470;2023-02-13T03:01:12;11.85;;;7.25;;
55270;SDS011;41132;47.162;9.470;2023-02-13T03:03:59;8.88;;;6.03;;
55270;SDS011;41132;47.162;9.470;2023-02-13T03:06:47;11.82;;;6.32;;
55270;SDS011;41132;47.162;9.470;2023-02-13T03:09:28;8.75;;;5.32;;
55270;SDS011;41132;47.162;9.470;2023-02-13T03:12:16;10.95;;;6.90;;
55270;SDS011;41132;47.162;9.470;2023-02-13T03:15:03;10.40;;;6.72;;
55270;SDS011;41132;47.162;9.470;2023-02-13T03:17:29;10.85;;;6.78;;
55270;SDS011;41132;47.162;9.470;2023-02-13T03:23:37;13.88;;;7.22;;
55270;SDS011;41132;47.162;9.470;2023-02-13T03:29:46;9.85;;;6.63;;
55270;SDS011;41132;47.162;9.470;2023-02-13T03:32:31;11.50;;;6.38;;
55270;SDS011;41132;47.162;9.470;2023-02-13T03:35:11;11.23;;;6.18;;
55270;SDS011;41132;47.162;9.470;2023-02-13T03:41:27;9.88;;;6.28;;
55270;SDS011;41132;47.162;9.470;2023-02-13T03:44:06;13.15;;;7.68;;
55270;SDS011;41132;47.162;9.470;2023-02-13T03:46:38;12.57;;;7.07;;
55270;SDS011;41132;47.162;9.470;2023-02-13T03:49:09;12.13;;;7.85;;
55270;SDS011;41132;47.162;9.470;2023-02-13T03:52:43;13.38;;;7.85;;
55270;SDS011;41132;47.162;9.470;2023-02-13T03:55:08;12.20;;;7.53;;
55270;SDS011;41132;47.162;9.470;2023-02-13T03:58:18;14.02;;;8.38;;
55270;SDS011;41132;47.162;9.470;2023-02-13T04:01:08;12.05;;;7.47;;
55270;SDS011;41132;47.162;9.470;2023-02-13T04:06:38;14.25;;;8.23;;
55270;SDS011;41132;47.162;9.470;2023-02-13T04:08:58;13.50;;;7.63;;
55270;SDS011;41132;47.162;9.470;2023-02-13T04:11:26;13.85;;;8.63;;
55270;SDS011;41132;47.162;9.470;2023-02-13T04:13:56;12.68;;;7.78;;
55270;SDS011;41132;47.162;9.470;2023-02-13T04:16:28;13.13;;;8.07;;
55270;SDS011;41132;47.162;9.470;2023-02-13T04:18:58;13.77;;;7.57;;
55270;SDS011;41132;47.162;9.470;2023-02-13T04:21:25;12.95;;;8.52;;
55270;SDS011;41132;47.162;9.470;2023-02-13T04:23:50;14.63;;;8.40;;
55270;SDS011;41132;47.162;9.470;2023-02-13T04:26:17;14.57;;;8.40;;
55270;SDS011;41132;47.162;9.470;2023-02-13T04:28:45;11.70;;;7.43;;
55270;SDS011;41132;47.162;9.470;2023-02-13T04:31:11;13.23;;;7.70;;
55270;SDS011;41132;47.162;9.470;2023-02-13T04:33:36;14.02;;;8.15;;
55270;SDS011;41132;47.162;9.470;2023-02-13T04:36:02;13.70;;;8.50;;
55270;SDS011;41132;47.162;9.470;2023-02-13T04:38:27;17.42;;;9.40;;
55270;SDS011;41132;47.162;9.470;2023-02-13T04:40:52;13.85;;;8.38;;
55270;SDS011;41132;47.162;9.470;2023-02-13T04:43:18;17.73;;;9.27;;
55270;SDS011;41132;47.162;9.470;2023-02-13T04:45:46;13.77;;;8.20;;
55270;SDS011;41132;47.162;9.470;2023-02-13T04:48:12;12.85;;;7.72;;
55270;SDS011;41132;47.162;9.470;2023-02-13T04:50:38;14.77;;;9.35;;
55270;SDS011;41132;47.162;9.470;2023-02-13T04:53:03;12.93;;;8.52;;
55270;SDS011;41132;47.162;9.470;2023-02-13T04:55:28;12.70;;;8.55;;
55270;SDS011;41132;47.162;9.470;2023-02-13T04:57:54;13.68;;;8.38;;
55270;SDS011;41132;47.162;9.470;2023-02-13T05:00:20;18.48;;;9.02;;
55270;SDS011;41132;47.162;9.470;2023-02-13T05:02:47;13.68;;;8.60;;
55270;SDS011;41132;47.162;9.470;2023-02-13T05:05:12;12.38;;;8.27;;
55270;SDS011;41132;47.162;9.470;2023-02-13T05:07:38;18.83;;;8.90;;
55270;SDS011;41132;47.162;9.470;2023-02-13T05:10:04;15.30;;;9.10;;
55270;SDS011;41132;47.162;9.470;2023-02-13T05:12:30;13.57;;;8.23;;
55270;SDS011;41132;47.162;9.470;2023-02-13T05:14:56;14.82;;;9.15;;
55270;SDS011;41132;47.162;9.470;2023-02-13T05:17:21;12.98;;;8.35;;
55270;SDS011;41132;47.162;9.470;2023-02-13T05:19:46;14.95;;;9.00;;
55270;SDS011;41132;47.162;9.470;2023-02-13T05:22:12;15.30;;;9.48;;
55270;SDS011;41132;47.162;9.470;2023-02-13T05:24:56;14.98;;;9.20;;
55270;SDS011;41132;47.162;9.470;2023-02-13T05:27:21;12.82;;;7.90;;
55270;SDS011;41132;47.162;9.470;2023-02-13T05:29:46;16.38;;;9.48;;
55270;SDS011;41132;47.162;9.470;2023-02-13T05:32:13;17.13;;;9.93;;
55270;SDS011;41132;47.162;9.470;2023-02-13T05:34:38;14.18;;;8.63;;
55270;SDS011;41132;47.162;9.470;2023-02-13T05:37:03;14.18;;;8.98;;
55270;SDS011;41132;47.162;9.470;2023-02-13T05:39:29;15.48;;;9.00;;
55270;SDS011;41132;47.162;9.470;2023-02-13T05:41:54;15.18;;;9.23;;
55270;SDS011;41132;47.162;9.470;2023-02-13T05:44:20;14.07;;;9.18;;
55270;SDS011;41132;47.162;9.470;2023-02-13T05:46:45;13.95;;;8.90;;
55270;SDS011;41132;47.162;9.470;2023-02-13T05:49:11;15.40;;;9.73;;
55270;SDS011;41132;47.162;9.470;2023-02-13T05:51:37;14.55;;;8.75;;
55270;SDS011;41132;47.162;9.470;2023-02-13T05:54:03;17.52;;;9.63;;
55270;SDS011;41132;47.162;9.470;2023-02-13T05:56:28;13.25;;;8.93;;
55270;SDS011;41132;47.162;9.470;2023-02-13T05:58:54;14.13;;;9.13;;
55270;SDS011;41132;47.162;9.470;2023-02-13T06:01:21;14.85;;;9.20;;
55270;SDS011;41132;47.162;9.470;2023-02-13T06:03:48;14.93;;;9.10;;
55270;SDS011;41132;47.162;9.470;2023-02-13T06:06:14;15.90;;;9.55;;
55270;SDS011;41132;47.162;9.470;2023-02-13T06:08:40;15.50;;;9.07;;
55270;SDS011;41132;47.162;9.470;2023-02-13T06:11:06;15.65;;;9.50;;
55270;SDS011;41132;47.162;9.470;2023-02-13T06:13:32;16.25;;;9.70;;
55270;SDS011;41132;47.162;9.470;2023-02-13T06:15:58;17.63;;;11.10;;
55270;SDS011;41132;47.162;9.470;2023-02-13T06:18:23;15.02;;;9.25;;
55270;SDS011;41132;47.162;9.470;2023-02-13T06:20:49;17.30;;;10.15;;
55270;SDS011;41132;47.162;9.470;2023-02-13T06:23:14;14.15;;;9.80;;
55270;SDS011;41132;47.162;9.470;2023-02-13T06:25:40;17.83;;;10.80;;
55270;SDS011;41132;47.162;9.470;2023-02-13T06:28:05;15.93;;;10.48;;
55270;SDS011;41132;47.162;9.470;2023-02-13T06:30:31;14.32;;;9.57;;
55270;SDS011;41132;47.162;9.470;2023-02-13T06:32:57;18.10;;;12.38;;
55270;SDS011;41132;47.162;9.470;2023-02-13T06:35:23;19.15;;;12.25;;
55270;SDS011;41132;47.162;9.470;2023-02-13T06:37:48;23.05;;;13.18;;
55270;SDS011;41132;47.162;9.470;2023-02-13T06:40:14;21.30;;;12.20;;
55270;SDS011;41132;47.162;9.470;2023-02-13T06:42:40;20.00;;;12.20;;
55270;SDS011;41132;47.162;9.470;2023-02-13T06:45:07;22.77;;;13.55;;
55270;SDS011;41132;47.162;9.470;2023-02-13T06:47:33;20.67;;;13.07;;
55270;SDS011;41132;47.162;9.470;2023-02-13T06:49:58;20.33;;;12.77;;
55270;SDS011;41132;47.162;9.470;2023-02-13T06:52:23;23.30;;;14.05;;
55270;SDS011;41132;47.162;9.470;2023-02-13T06:54:49;21.33;;;13.75;;
55270;SDS011;41132;47.162;9.470;2023-02-13T06:57:14;18.58;;;12.50;;
55270;SDS011;41132;47.162;9.470;2023-02-13T06:59:40;21.00;;;12.90;;
55270;SDS011;41132;47.162;9.470;2023-02-13T07:02:07;20.70;;;13.07;;
55270;SDS011;41132;47.162;9.470;2023-02-13T07:04:34;21.23;;;13.55;;
55270;SDS011;41132;47.162;9.470;2023-02-13T07:06:59;26.00;;;13.15;;
55270;SDS011;41132;47.162;9.470;2023-02-13T07:09:25;20.48;;;13.25;;
55270;SDS011;41132;47.162;9.470;2023-02-13T07:11:50;21.45;;;12.52;;
55270;SDS011;41132;47.162;9.470;2023-02-13T07:14:17;21.80;;;11.88;;
55270;SDS011;41132;47.162;9.470;2023-02-13T07:16:42;21.02;;;12.98;;
55270;SDS011;41132;47.162;9.470;2023-02-13T07:19:07;20.88;;;12.93;;
55270;SDS011;41132;47.162;9.470;2023-02-13T07:21:33;19.88;;;12.57;;
55270;SDS011;41132;47.162;9.470;2023-02-13T07:23:58;20.35;;;12.65;;
55270;SDS011;41132;47.162;9.470;2023-02-13T07:26:24;21.42;;;12.95;;
55270;SDS011;41132;47.162;9.470;2023-02-13T07:28:50;19.73;;;13.43;;
55270;SDS011;41132;47.162;9.470;2023-02-13T07:31:16;20.30;;;12.68;;
55270;SDS011;41132;47.162;9.470;2023-02-13T07:33:41;21.02;;;12.30;;
55270;SDS011;41132;47.162;9.470;2023-02-13T07:36:07;20.95;;;12.40;;
55270;SDS011;41132;47.162;9.470;2023-02-13T07:38:33;18.60;;;12.00;;
55270;SDS011;41132;47.162;9.470;2023-02-13T07:40:58;17.15;;;11.32;;
55270;SDS011;41132;47.162;9.470;2023-02-13T07:43:25;18.98;;;12.63;;
55270;SDS011;41132;47.162;9.470;2023-02-13T07:45:50;19.83;;;13.15;;
55270;SDS011;41132;47.162;9.470;2023-02-13T07:48:19;19.42;;;12.85;;
55270;SDS011;41132;47.162;9.470;2023-02-13T07:50:46;19.20;;;12.43;;
55270;SDS011;41132;47.162;9.470;2023-02-13T07:53:11;20.38;;;12.70;;
55270;SDS011;41132;47.162;9.470;2023-02-13T07:55:37;19.77;;;12.05;;
55270;SDS011;41132;47.162;9.470;2023-02-13T07:58:03;21.27;;;13.27;;
55270;SDS011;41132;47.162;9.470;2023-02-13T08:00:29;20.05;;;12.38;;
55270;SDS011;41132;47.162;9.470;2023-02-13T08:02:54;20.08;;;12.90;;
55270;SDS011;41132;47.162;9.470;2023-02-13T08:05:19;21.33;;;12.93;;
55270;SDS011;41132;47.162;9.470;2023-02-13T08:07:45;17.55;;;11.43;;
55270;SDS011;41132;47.162;9.470;2023-02-13T08:10:11;19.98;;;12.02;;
55270;SDS011;41132;47.162;9.470;2023-02-13T08:12:55;18.60;;;12.07;;
55270;SDS011;41132;47.162;9.470;2023-02-13T08:15:20;17.80;;;11.57;;
55270;SDS011;41132;47.162;9.470;2023-02-13T08:17:46;20.75;;;12.95;;
55270;SDS011;41132;47.162;9.470;2023-02-13T08:20:11;19.27;;;12.05;;
55270;SDS011;41132;47.162;9.470;2023-02-13T08:22:37;16.65;;;11.75;;
55270;SDS011;41132;47.162;9.470;2023-02-13T08:25:03;22.83;;;12.35;;
55270;SDS011;41132;47.162;9.470;2023-02-13T08:27:29;18.90;;;11.77;;
55270;SDS011;41132;47.162;9.470;2023-02-13T08:29:55;22.27;;;13.27;;
55270;SDS011;41132;47.162;9.470;2023-02-13T08:32:21;21.75;;;13.98;;
55270;SDS011;41132;47.162;9.470;2023-02-13T08:34:47;22.88;;;13.07;;
55270;SDS011;41132;47.162;9.470;2023-02-13T08:37:13;25.88;;;14.32;;
55270;SDS011;41132;47.162;9.470;2023-02-13T08:39:38;19.58;;;11.75;;
55270;SDS011;41132;47.162;9.470;2023-02-13T08:42:04;21.95;;;12.70;;
55270;SDS011;41132;47.162;9.470;2023-02-13T08:44:29;24.15;;;12.80;;
55270;SDS011;41132;47.162;9.470;2023-02-13T08:46:54;21.50;;;13.05;;
55270;SDS011;41132;47.162;9.470;2023-02-13T08:49:20;20.33;;;13.00;;
55270;SDS011;41132;47.162;9.470;2023-02-13T08:51:47;26.80;;;14.73;;
55270;SDS011;41132;47.162;9.470;2023-02-13T08:54:13;20.55;;;13.45;;
55270;SDS011;41132;47.162;9.470;2023-02-13T08:56:38;22.38;;;13.80;;
55270;SDS011;41132;47.162;9.470;2023-02-13T08:59:03;20.95;;;13.13;;
55270;SDS011;41132;47.162;9.470;2023-02-13T09:01:29;22.48;;;13.73;;
55270;SDS011;41132;47.162;9.470;2023-02-13T09:03:54;23.80;;;14.65;;
55270;SDS011;41132;47.162;9.470;2023-02-13T09:06:20;20.90;;;13.35;;
55270;SDS011;41132;47.162;9.470;2023-02-13T09:08:45;25.42;;;14.63;;
55270;SDS011;41132;47.162;9.470;2023-02-13T09:11:11;22.92;;;13.88;;
55270;SDS011;41132;47.162;9.470;2023-02-13T09:13:37;22.05;;;13.63;;
55270;SDS011;41132;47.162;9.470;2023-02-13T09:16:04;22.88;;;14.35;;
55270;SDS011;41132;47.162;9.470;2023-02-13T09:18:31;23.58;;;13.63;;
55270;SDS011;41132;47.162;9.470;2023-02-13T09:21:05;24.00;;;14.30;;
55270;SDS011;41132;47.162;9.470;2023-02-13T09:23:32;23.38;;;14.10;;
55270;SDS011;41132;47.162;9.470;2023-02-13T09:26:01;19.58;;;12.95;;
55270;SDS011;41132;47.162;9.470;2023-02-13T09:28:28;28.75;;;14.35;;
55270;SDS011;41132;47.162;9.470;2023-02-13T09:30:55;25.52;;;14.30;;
55270;SDS011;41132;47.162;9.470;2023-02-13T09:33:21;23.05;;;14.60;;
55270;SDS011;41132;47.162;9.470;2023-02-13T09:35:47;23.95;;;13.95;;
55270;SDS011;41132;47.162;9.470;2023-02-13T09:38:12;23.05;;;13.88;;
55270;SDS011;41132;47.162;9.470;2023-02-13T09:40:57;21.90;;;13.85;;
55270;SDS011;41132;47.162;9.470;2023-02-13T09:43:30;22.73;;;13.10;;
55270;SDS011;41132;47.162;9.470;2023-02-13T09:46:08;18.45;;;11.32;;
55270;SDS011;41132;47.162;9.470;2023-02-13T09:48:38;21.75;;;12.98;;
55270;SDS011;41132;47.162;9.470;2023-02-13T09:51:06;21.98;;;13.32;;
55270;SDS011;41132;47.162;9.470;2023-02-13T09:53:39;20.17;;;12.27;;
55270;SDS011;41132;47.162;9.470;2023-02-13T09:56:17;23.83;;;14.10;;
55270;SDS011;41132;47.162;9.470;2023-02-13T09:58:48;23.85;;;13.52;;
55270;SDS011;41132;47.162;9.470;2023-02-13T10:04:11;22.20;;;13.00;;
55270;SDS011;41132;47.162;9.470;2023-02-13T10:07:35;20.88;;;12.82;;
55270;SDS011;41132;47.162;9.470;2023-02-13T10:15:13;22.65;;;13.35;;
55270;SDS011;41132;47.162;9.470;2023-02-13T10:17:43;22.52;;;12.68;;
55270;SDS011;41132;47.162;9.470;2023-02-13T10:23:02;21.73;;;13.85;;
55270;SDS011;41132;47.162;9.470;2023-02-13T10:25:58;22.27;;;13.63;;
55270;SDS011;41132;47.162;9.470;2023-02-13T10:31:07;19.75;;;13.48;;
55270;SDS011;41132;47.162;9.470;2023-02-13T10:33:40;22.08;;;12.90;;
55270;SDS011;41132;47.162;9.470;2023-02-13T10:36:11;21.73;;;14.18;;
55270;SDS011;41132;47.162;9.470;2023-02-13T10:39:25;21.40;;;12.55;;
55270;SDS011;41132;47.162;9.470;2023-02-13T10:49:48;20.67;;;12.57;;
55270;SDS011;41132;47.162;9.470;2023-02-13T10:52:32;21.92;;;11.98;;
55270;SDS011;41132;47.162;9.470;2023-02-13T11:00:17;20.67;;;12.88;;
55270;SDS011;41132;47.162;9.470;2023-02-13T11:02:51;19.95;;;12.70;;
55270;SDS011;41132;47.162;9.470;2023-02-13T11:05:20;21.95;;;14.63;;
55270;SDS011;41132;47.162;9.470;2023-02-13T11:07:49;23.45;;;14.05;;
55270;SDS011;41132;47.162;9.470;2023-02-13T11:10:19;19.08;;;11.25;;
55270;SDS011;41132;47.162;9.470;2023-02-13T11:12:47;19.88;;;13.18;;
55270;SDS011;41132;47.162;9.470;2023-02-13T11:15:26;23.15;;;15.43;;
55270;SDS011;41132;47.162;9.470;2023-02-13T11:17:58;21.92;;;13.93;;
55270;SDS011;41132;47.162;9.470;2023-02-13T11:23:17;22.40;;;12.75;;
55270;SDS011;41132;47.162;9.470;2023-02-13T11:25:53;19.52;;;12.82;;
55270;SDS011;41132;47.162;9.470;2023-02-13T11:28:21;19.05;;;12.90;;
55270;SDS011;41132;47.162;9.470;2023-02-13T11:30:47;20.67;;;13.15;;
55270;SDS011;41132;47.162;9.470;2023-02-13T11:35:41;24.90;;;13.55;;
55270;SDS011;41132;47.162;9.470;2023-02-13T11:40:39;19.65;;;12.95;;
55270;SDS011;41132;47.162;9.470;2023-02-13T11:43:13;23.60;;;14.30;;
55270;SDS011;41132;47.162;9.470;2023-02-13T11:45:42;20.23;;;13.27;;
55270;SDS011;41132;47.162;9.470;2023-02-13T11:48:08;21.75;;;13.02;;
55270;SDS011;41132;47.162;9.470;2023-02-13T11:50:49;22.98;;;13.73;;
55270;SDS011;41132;47.162;9.470;2023-02-13T11:53:18;23.55;;;14.20;;
55270;SDS011;41132;47.162;9.470;2023-02-13T11:58:48;22.52;;;12.75;;
55270;SDS011;41132;47.162;9.470;2023-02-13T12:01:26;23.08;;;14.65;;
55270;SDS011;41132;47.162;9.470;2023-02-13T12:04:03;22.02;;;13.63;;
55270;SDS011;41132;47.162;9.470;2023-02-13T12:09:28;19.48;;;12.30;;
55270;SDS011;41132;47.162;9.470;2023-02-13T12:11:56;23.80;;;13.70;;
55270;SDS011;41132;47.162;9.470;2023-02-13T12:14:28;25.15;;;13.48;;
55270;SDS011;41132;47.162;9.470;2023-02-13T12:17:07;20.67;;;13.65;;
55270;SDS011;41132;47.162;9.470;2023-02-13T12:19:47;22.90;;;14.55;;
55270;SDS011;41132;47.162;9.470;2023-02-13T12:22:30;26.60;;;15.40;;
55270;SDS011;41132;47.162;9.470;2023-02-13T12:27:45;24.63;;;13.63;;
55270;SDS011;41132;47.162;9.470;2023-02-13T12:33:12;21.70;;;12.05;;
55270;SDS011;41132;47.162;9.470;2023-02-13T12:41:06;18.13;;;11.70;;
55270;SDS011;41132;47.162;9.470;2023-02-13T12:57:12;20.98;;;11.73;;
55270;SDS011;41132;47.162;9.470;2023-02-13T13:14:05;17.73;;;11.18;;
55270;SDS011;41132;47.162;9.470;2023-02-13T13:22:17;19.45;;;12.45;;
55270;SDS011;41132;47.162;9.470;2023-02-13T13:27:34;18.02;;;11.30;;
55270;SDS011;41132;47.162;9.470;2023-02-13T13:30:01;17.05;;;11.82;;
55270;SDS011;41132;47.162;9.470;2023-02-13T13:32:37;17.77;;;11.52;;
55270;SDS011;41132;47.162;9.470;2023-02-13T13:35:10;17.98;;;11.40;;
55270;SDS011;41132;47.162;9.470;2023-02-13T13:37:50;18.70;;;12.00;;
55270;SDS011;41132;47.162;9.470;2023-02-13T13:40:50;19.80;;;12.52;;
55270;SDS011;41132;47.162;9.470;2023-02-13T13:43:32;21.27;;;13.40;;
55270;SDS011;41132;47.162;9.470;2023-02-13T13:49:06;18.55;;;13.07;;
55270;SDS011;41132;47.162;9.470;2023-02-13T13:54:47;21.23;;;13.20;;
55270;SDS011;41132;47.162;9.470;2023-02-13T13:57:26;19.27;;;12.75;;
55270;SDS011;41132;47.162;9.470;2023-02-13T14:05:16;18.58;;;12.25;;
55270;SDS011;41132;47.162;9.470;2023-02-13T14:07:46;19.73;;;12.02;;
55270;SDS011;41132;47.162;9.470;2023-02-13T14:13:06;18.70;;;11.30;;
55270;SDS011;41132;47.162;9.470;2023-02-13T14:23:25;17.20;;;11.88;;
55270;SDS011;41132;47.162;9.470;2023-02-13T14:28:41;20.67;;;11.52;;
55270;SDS011;41132;47.162;9.470;2023-02-13T14:31:35;19.25;;;10.82;;
55270;SDS011;41132;47.162;9.470;2023-02-13T14:34:07;19.20;;;12.55;;
55270;SDS011;41132;47.162;9.470;2023-02-13T14:36:44;18.30;;;11.35;;
55270;SDS011;41132;47.162;9.470;2023-02-13T14:41:44;20.75;;;13.27;;
55270;SDS011;41132;47.162;9.470;2023-02-13T14:44:19;18.02;;;11.48;;
55270;SDS011;41132;47.162;9.470;2023-02-13T14:46:49;18.67;;;12.77;;
55270;SDS011;41132;47.162;9.470;2023-02-13T14:49:16;18.50;;;11.50;;
55270;SDS011;41132;47.162;9.470;2023-02-13T14:51:49;18.90;;;11.85;;
55270;SDS011;41132;47.162;9.470;2023-02-13T14:54:18;17.95;;;12.00;;
55270;SDS011;41132;47.162;9.470;2023-02-13T14:56:47;17.70;;;12.00;;
55270;SDS011;41132;47.162;9.470;2023-02-13T14:59:16;16.13;;;10.40;;
55270;SDS011;41132;47.162;9.470;2023-02-13T15:01:54;15.60;;;10.75;;
55270;SDS011;41132;47.162;9.470;2023-02-13T15:04:45;17.17;;;11.40;;
55270;SDS011;41132;47.162;9.470;2023-02-13T15:07:13;18.90;;;11.68;;
55270;SDS011;41132;47.162;9.470;2023-02-13T15:09:54;16.75;;;10.98;;
55270;SDS011;41132;47.162;9.470;2023-02-13T15:12:31;17.10;;;11.20;;
55270;SDS011;41132;47.162;9.470;2023-02-13T15:14:58;16.23;;;10.50;;
55270;SDS011;41132;47.162;9.470;2023-02-13T15:17:28;15.07;;;10.85;;
55270;SDS011;41132;47.162;9.470;2023-02-13T15:20:03;15.75;;;10.20;;
55270;SDS011;41132;47.162;9.470;2023-02-13T15:22:40;15.80;;;10.05;;
55270;SDS011;41132;47.162;9.470;2023-02-13T15:28:06;17.33;;;10.43;;
55270;SDS011;41132;47.162;9.470;2023-02-13T15:30:41;16.90;;;11.27;;
55270;SDS011;41132;47.162;9.470;2023-02-13T15:33:19;17.83;;;10.57;;
55270;SDS011;41132;47.162;9.470;2023-02-13T15:36:00;15.25;;;9.95;;
55270;SDS011;41132;47.162;9.470;2023-02-13T15:38:29;15.98;;;8.98;;
55270;SDS011;41132;47.162;9.470;2023-02-13T15:41:05;18.77;;;10.02;;
55270;SDS011;41132;47.162;9.470;2023-02-13T15:43:48;21.75;;;13.20;;
55270;SDS011;41132;47.162;9.470;2023-02-13T15:46:20;32.03;;;20.90;;
55270;SDS011;41132;47.162;9.470;2023-02-13T15:48:48;26.33;;;16.65;;
55270;SDS011;41132;47.162;9.470;2023-02-13T15:51:18;19.70;;;12.40;;
55270;SDS011;41132;47.162;9.470;2023-02-13T15:56:23;13.38;;;8.35;;
55270;SDS011;41132;47.162;9.470;2023-02-13T15:58:49;12.52;;;7.75;;
55270;SDS011;41132;47.162;9.470;2023-02-13T16:01:16;14.57;;;7.72;;
55270;SDS011;41132;47.162;9.470;2023-02-13T16:03:42;12.85;;;7.32;;
55270;SDS011;41132;47.162;9.470;2023-02-13T16:06:15;13.10;;;7.80;;
55270;SDS011;41132;47.162;9.470;2023-02-13T16:08:53;9.18;;;6.10;;
55270;SDS011;41132;47.162;9.470;2023-02-13T16:11:22;11.90;;;6.68;;
55270;SDS011;41132;47.162;9.470;2023-02-13T16:14:07;12.70;;;7.97;;
55270;SDS011;41132;47.162;9.470;2023-02-13T16:16:52;11.23;;;6.30;;
55270;SDS011;41132;47.162;9.470;2023-02-13T16:19:36;12.93;;;7.60;;
55270;SDS011;41132;47.162;9.470;2023-02-13T16:22:16;12.27;;;7.65;;
55270;SDS011;41132;47.162;9.470;2023-02-13T16:25:12;14.55;;;9.38;;
55270;SDS011;41132;47.162;9.470;2023-02-13T16:27:43;14.68;;;8.80;;
55270;SDS011;41132;47.162;9.470;2023-02-13T16:30:21;14.77;;;9.05;;
55270;SDS011;41132;47.162;9.470;2023-02-13T16:33:11;18.38;;;9.05;;
55270;SDS011;41132;47.162;9.470;2023-02-13T16:38:22;15.05;;;9.15;;
55270;SDS011;41132;47.162;9.470;2023-02-13T16:40:48;15.25;;;9.38;;
55270;SDS011;41132;47.162;9.470;2023-02-13T16:46:09;21.10;;;10.98;;
55270;SDS011;41132;47.162;9.470;2023-02-13T16:54:19;17.30;;;10.73;;
55270;SDS011;41132;47.162;9.470;2023-02-13T16:56:55;18.27;;;10.25;;
55270;SDS011;41132;47.162;9.470;2023-02-13T17:07:40;22.60;;;15.03;;
55270;SDS011;41132;47.162;9.470;2023-02-13T17:12:51;27.45;;;15.77;;
55270;SDS011;41132;47.162;9.470;2023-02-13T17:15:19;23.75;;;15.85;;
55270;SDS011;41132;47.162;9.470;2023-02-13T17:17:47;25.77;;;15.48;;
55270;SDS011;41132;47.162;9.470;2023-02-13T17:20:15;23.83;;;15.68;;
55270;SDS011;41132;47.162;9.470;2023-02-13T17:22:49;20.25;;;13.38;;
55270;SDS011;41132;47.162;9.470;2023-02-13T17:25:23;19.85;;;12.73;;
55270;SDS011;41132;47.162;9.470;2023-02-13T17:27:52;17.77;;;12.02;;
55270;SDS011;41132;47.162;9.470;2023-02-13T17:30:23;16.33;;;11.10;;
55270;SDS011;41132;47.162;9.470;2023-02-13T17:32:52;16.42;;;9.75;;
55270;SDS011;41132;47.162;9.470;2023-02-13T17:35:22;14.70;;;9.35;;
55270;SDS011;41132;47.162;9.470;2023-02-13T17:37:47;14.02;;;9.50;;
55270;SDS011;41132;47.162;9.470;2023-02-13T17:40:16;13.25;;;7.93;;
55270;SDS011;41132;47.162;9.470;2023-02-13T17:42:44;14.98;;;8.43;;
55270;SDS011;41132;47.162;9.470;2023-02-13T17:45:14;14.55;;;8.45;;
55270;SDS011;41132;47.162;9.470;2023-02-13T17:47:41;12.90;;;8.45;;
55270;SDS011;41132;47.162;9.470;2023-02-13T17:50:07;14.80;;;9.77;;
55270;SDS011;41132;47.162;9.470;2023-02-13T17:52:33;14.50;;;9.02;;
55270;SDS011;41132;47.162;9.470;2023-02-13T17:54:58;14.73;;;8.27;;
55270;SDS011;41132;47.162;9.470;2023-02-13T17:57:24;15.43;;;9.10;;
55270;SDS011;41132;47.162;9.470;2023-02-13T17:59:49;16.45;;;8.55;;